sensor_id;sensor_type;location;lat;lon;timestamp;P1;durP1;ratioP1;P2;durP2;ratioP2
12707;SDS011;6418;50.824;4.718;2023-06-14T00:02:25;12.50;;;7.30;;
12707;SDS011;6418;50.824;4.718;2023-06-14T00:04:52;12.67;;;7.23;;
12707;SDS011;6418;50.824;4.718;2023-06-14T00:07:22;13.30;;;7.20;;
12707;SDS011;6418;50.824;4.718;2023-06-14T00:10:00;13.00;;;7.13;;
12707;SDS011;6418;50.824;4.718;2023-06-14T00:12:27;12.47;;;7.30;;
12707;SDS011;6418;50.824;4.718;2023-06-14T00:14:54;11.53;;;7.00;;
12707;SDS011;6418;50.824;4.718;2023-06-14T00:17:21;12.90;;;7.60;;
12707;SDS011;6418;50.824;4.718;2023-06-14T00:19:48;14.33;;;7.70;;
12707;SDS011;6418;50.824;4.718;2023-06-14T00:22:15;14.83;;;7.23;;
12707;SDS011;6418;50.824;4.718;2023-06-14T00:24:43;15.53;;;7.73;;
12707;SDS011;6418;50.824;4.718;2023-06-14T00:27:10;15.17;;;7.87;;
12707;SDS011;6418;50.824;4.718;2023-06-14T00:29:37;12.40;;;7.70;;
12707;SDS011;6418;50.824;4.718;2023-06-14T00:32:04;26.53;;;8.00;;
12707;SDS011;6418;50.824;4.718;2023-06-14T00:34:32;14.53;;;7.67;;
12707;SDS011;6418;50.824;4.718;2023-06-14T00:36:59;14.83;;;7.60;;
12707;SDS011;6418;50.824;4.718;2023-06-14T00:39:26;13.93;;;7.47;;
12707;SDS011;6418;50.824;4.718;2023-06-14T00:41:54;12.20;;;7.60;;
12707;SDS011;6418;50.824;4.718;2023-06-14T00:44:22;13.17;;;7.87;;
12707;SDS011;6418;50.824;4.718;2023-06-14T00:46:49;13.10;;;7.37;;
12707;SDS011;6418;50.824;4.718;2023-06-14T00:49:16;14.03;;;7.43;;
12707;SDS011;6418;50.824;4.718;2023-06-14T00:51:45;15.67;;;7.90;;
12707;SDS011;6418;50.824;4.718;2023-06-14T00:54:12;17.37;;;7.30;;
12707;SDS011;6418;50.824;4.718;2023-06-14T00:56:39;12.43;;;7.27;;
12707;SDS011;6418;50.824;4.718;2023-06-14T00:59:08;13.43;;;8.10;;
12707;SDS011;6418;50.824;4.718;2023-06-14T01:01:36;13.73;;;7.60;;
12707;SDS011;6418;50.824;4.718;2023-06-14T01:04:03;13.33;;;8.23;;
12707;SDS011;6418;50.824;4.718;2023-06-14T01:06:32;13.10;;;7.70;;
12707;SDS011;6418;50.824;4.718;2023-06-14T01:09:09;12.87;;;7.80;;
12707;SDS011;6418;50.824;4.718;2023-06-14T01:11:47;13.43;;;7.97;;
12707;SDS011;6418;50.824;4.718;2023-06-14T01:14:21;13.30;;;8.30;;
12707;SDS011;6418;50.824;4.718;2023-06-14T01:16:50;16.10;;;8.20;;
12707;SDS011;6418;50.824;4.718;2023-06-14T01:19:18;14.83;;;8.37;;
12707;SDS011;6418;50.824;4.718;2023-06-14T01:21:47;15.57;;;8.37;;
12707;SDS011;6418;50.824;4.718;2023-06-14T01:24:17;14.03;;;8.50;;
12707;SDS011;6418;50.824;4.718;2023-06-14T01:26:48;19.70;;;8.37;;
12707;SDS011;6418;50.824;4.718;2023-06-14T01:29:20;14.00;;;8.00;;
12707;SDS011;6418;50.824;4.718;2023-06-14T01:31:50;14.93;;;8.53;;
12707;SDS011;6418;50.824;4.718;2023-06-14T01:34:17;13.80;;;8.40;;
12707;SDS011;6418;50.824;4.718;2023-06-14T01:36:44;16.10;;;8.70;;
12707;SDS011;6418;50.824;4.718;2023-06-14T01:39:12;15.47;;;8.27;;
12707;SDS011;6418;50.824;4.718;2023-06-14T01:41:42;13.63;;;8.10;;
12707;SDS011;6418;50.824;4.718;2023-06-14T01:44:12;14.23;;;8.30;;
12707;SDS011;6418;50.824;4.718;2023-06-14T01:46:40;12.93;;;7.80;;
12707;SDS011;6418;50.824;4.718;2023-06-14T01:49:10;15.60;;;7.97;;
12707;SDS011;6418;50.824;4.718;2023-06-14T01:51:37;17.50;;;8.27;;
12707;SDS011;6418;50.824;4.718;2023-06-14T01:54:04;12.77;;;8.40;;
12707;SDS011;6418;50.824;4.718;2023-06-14T01:56:32;14.40;;;8.40;;
12707;SDS011;6418;50.824;4.718;2023-06-14T01:59:00;15.43;;;8.87;;
12707;SDS011;6418;50.824;4.718;2023-06-14T02:01:27;14.00;;;8.27;;
12707;SDS011;6418;50.824;4.718;2023-06-14T02:03:54;14.47;;;8.63;;
12707;SDS011;6418;50.824;4.718;2023-06-14T02:06:20;14.73;;;8.47;;
12707;SDS011;6418;50.824;4.718;2023-06-14T02:08:47;13.77;;;8.80;;
12707;SDS011;6418;50.824;4.718;2023-06-14T02:11:15;13.00;;;8.27;;
12707;SDS011;6418;50.824;4.718;2023-06-14T02:13:42;13.80;;;8.37;;
12707;SDS011;6418;50.824;4.718;2023-06-14T02:16:10;14.67;;;8.83;;
12707;SDS011;6418;50.824;4.718;2023-06-14T02:18:37;14.87;;;8.60;;
12707;SDS011;6418;50.824;4.718;2023-06-14T02:21:03;16.10;;;8.07;;
12707;SDS011;6418;50.824;4.718;2023-06-14T02:23:30;15.17;;;8.47;;
12707;SDS011;6418;50.824;4.718;2023-06-14T02:25:58;14.53;;;9.00;;
12707;SDS011;6418;50.824;4.718;2023-06-14T02:28:25;14.23;;;8.60;;
12707;SDS011;6418;50.824;4.718;2023-06-14T02:30:52;15.17;;;8.63;;
12707;SDS011;6418;50.824;4.718;2023-06-14T02:33:20;13.63;;;8.67;;
12707;SDS011;6418;50.824;4.718;2023-06-14T02:35:47;13.03;;;8.30;;
12707;SDS011;6418;50.824;4.718;2023-06-14T02:38:15;14.03;;;8.63;;
12707;SDS011;6418;50.824;4.718;2023-06-14T02:40:42;15.63;;;8.50;;
12707;SDS011;6418;50.824;4.718;2023-06-14T02:43:08;18.47;;;8.27;;
12707;SDS011;6418;50.824;4.718;2023-06-14T02:45:35;15.90;;;9.13;;
12707;SDS011;6418;50.824;4.718;2023-06-14T02:48:02;17.87;;;9.30;;
12707;SDS011;6418;50.824;4.718;2023-06-14T02:50:31;14.70;;;8.63;;
12707;SDS011;6418;50.824;4.718;2023-06-14T02:52:58;13.80;;;8.83;;
12707;SDS011;6418;50.824;4.718;2023-06-14T02:55:25;13.90;;;8.63;;
12707;SDS011;6418;50.824;4.718;2023-06-14T02:57:52;14.30;;;8.77;;
12707;SDS011;6418;50.824;4.718;2023-06-14T03:00:19;15.43;;;9.47;;
12707;SDS011;6418;50.824;4.718;2023-06-14T03:02:46;15.83;;;8.73;;
12707;SDS011;6418;50.824;4.718;2023-06-14T03:05:13;18.33;;;9.50;;
12707;SDS011;6418;50.824;4.718;2023-06-14T03:07:42;16.77;;;8.87;;
12707;SDS011;6418;50.824;4.718;2023-06-14T03:10:10;15.33;;;9.67;;
12707;SDS011;6418;50.824;4.718;2023-06-14T03:12:38;17.60;;;9.17;;
12707;SDS011;6418;50.824;4.718;2023-06-14T03:15:05;15.37;;;9.13;;
12707;SDS011;6418;50.824;4.718;2023-06-14T03:17:32;20.03;;;9.70;;
12707;SDS011;6418;50.824;4.718;2023-06-14T03:20:00;14.00;;;9.20;;
12707;SDS011;6418;50.824;4.718;2023-06-14T03:22:28;15.67;;;9.27;;
12707;SDS011;6418;50.824;4.718;2023-06-14T03:24:57;14.30;;;9.33;;
12707;SDS011;6418;50.824;4.718;2023-06-14T03:27:24;14.00;;;9.10;;
12707;SDS011;6418;50.824;4.718;2023-06-14T03:29:53;14.93;;;9.07;;
12707;SDS011;6418;50.824;4.718;2023-06-14T03:32:20;15.00;;;9.77;;
12707;SDS011;6418;50.824;4.718;2023-06-14T03:34:47;15.80;;;9.57;;
12707;SDS011;6418;50.824;4.718;2023-06-14T03:37:14;15.30;;;9.23;;
12707;SDS011;6418;50.824;4.718;2023-06-14T03:39:41;15.33;;;10.23;;
12707;SDS011;6418;50.824;4.718;2023-06-14T03:42:12;19.53;;;10.33;;
12707;SDS011;6418;50.824;4.718;2023-06-14T03:44:39;22.30;;;9.90;;
12707;SDS011;6418;50.824;4.718;2023-06-14T03:47:06;19.53;;;10.23;;
12707;SDS011;6418;50.824;4.718;2023-06-14T03:49:34;17.50;;;9.83;;
12707;SDS011;6418;50.824;4.718;2023-06-14T03:52:02;21.50;;;10.37;;
12707;SDS011;6418;50.824;4.718;2023-06-14T03:54:29;21.17;;;9.67;;
12707;SDS011;6418;50.824;4.718;2023-06-14T03:56:57;16.13;;;9.83;;
12707;SDS011;6418;50.824;4.718;2023-06-14T03:59:26;21.33;;;10.10;;
12707;SDS011;6418;50.824;4.718;2023-06-14T04:01:53;20.33;;;10.20;;
12707;SDS011;6418;50.824;4.718;2023-06-14T04:04:21;16.47;;;9.97;;
12707;SDS011;6418;50.824;4.718;2023-06-14T04:06:53;20.63;;;9.70;;
12707;SDS011;6418;50.824;4.718;2023-06-14T04:09:21;15.87;;;9.73;;
12707;SDS011;6418;50.824;4.718;2023-06-14T04:11:50;19.20;;;10.27;;
12707;SDS011;6418;50.824;4.718;2023-06-14T04:14:18;17.17;;;9.40;;
12707;SDS011;6418;50.824;4.718;2023-06-14T04:16:46;16.10;;;10.13;;
12707;SDS011;6418;50.824;4.718;2023-06-14T04:19:14;17.43;;;10.03;;
12707;SDS011;6418;50.824;4.718;2023-06-14T04:21:41;16.83;;;10.37;;
12707;SDS011;6418;50.824;4.718;2023-06-14T04:24:08;18.37;;;10.03;;
12707;SDS011;6418;50.824;4.718;2023-06-14T04:26:38;15.50;;;10.10;;
12707;SDS011;6418;50.824;4.718;2023-06-14T04:29:05;14.40;;;9.83;;
12707;SDS011;6418;50.824;4.718;2023-06-14T04:31:32;17.97;;;10.17;;
12707;SDS011;6418;50.824;4.718;2023-06-14T04:34:03;17.67;;;10.40;;
12707;SDS011;6418;50.824;4.718;2023-06-14T04:36:31;16.53;;;10.30;;
12707;SDS011;6418;50.824;4.718;2023-06-14T04:38:59;19.63;;;10.57;;
12707;SDS011;6418;50.824;4.718;2023-06-14T04:41:28;18.57;;;10.97;;
12707;SDS011;6418;50.824;4.718;2023-06-14T04:43:56;17.10;;;10.37;;
12707;SDS011;6418;50.824;4.718;2023-06-14T04:46:26;17.80;;;10.73;;
12707;SDS011;6418;50.824;4.718;2023-06-14T04:48:53;19.43;;;10.67;;
12707;SDS011;6418;50.824;4.718;2023-06-14T04:51:21;18.50;;;10.60;;
12707;SDS011;6418;50.824;4.718;2023-06-14T04:53:54;17.57;;;10.87;;
12707;SDS011;6418;50.824;4.718;2023-06-14T04:56:23;17.23;;;10.73;;
12707;SDS011;6418;50.824;4.718;2023-06-14T04:58:51;17.23;;;10.97;;
12707;SDS011;6418;50.824;4.718;2023-06-14T05:01:18;18.77;;;10.50;;
12707;SDS011;6418;50.824;4.718;2023-06-14T05:03:46;20.13;;;10.60;;
12707;SDS011;6418;50.824;4.718;2023-06-14T05:06:14;22.57;;;10.50;;
12707;SDS011;6418;50.824;4.718;2023-06-14T05:08:43;17.17;;;10.63;;
12707;SDS011;6418;50.824;4.718;2023-06-14T05:11:10;19.33;;;10.90;;
12707;SDS011;6418;50.824;4.718;2023-06-14T05:13:37;19.40;;;11.23;;
12707;SDS011;6418;50.824;4.718;2023-06-14T05:16:04;19.97;;;10.70;;
12707;SDS011;6418;50.824;4.718;2023-06-14T05:18:32;18.67;;;10.80;;
12707;SDS011;6418;50.824;4.718;2023-06-14T05:21:00;19.13;;;10.53;;
12707;SDS011;6418;50.824;4.718;2023-06-14T05:23:27;17.40;;;10.97;;
12707;SDS011;6418;50.824;4.718;2023-06-14T05:25:55;18.90;;;10.77;;
12707;SDS011;6418;50.824;4.718;2023-06-14T05:28:22;17.93;;;10.60;;
12707;SDS011;6418;50.824;4.718;2023-06-14T05:30:49;17.53;;;11.00;;
12707;SDS011;6418;50.824;4.718;2023-06-14T05:33:17;19.30;;;11.13;;
12707;SDS011;6418;50.824;4.718;2023-06-14T05:35:43;18.47;;;11.07;;
12707;SDS011;6418;50.824;4.718;2023-06-14T05:38:10;18.23;;;10.97;;
12707;SDS011;6418;50.824;4.718;2023-06-14T05:40:37;17.67;;;11.33;;
12707;SDS011;6418;50.824;4.718;2023-06-14T05:43:05;19.87;;;11.00;;
12707;SDS011;6418;50.824;4.718;2023-06-14T05:45:32;24.20;;;11.67;;
12707;SDS011;6418;50.824;4.718;2023-06-14T06:18:57;16.03;;;10.83;;
12707;SDS011;6418;50.824;4.718;2023-06-14T06:21:24;17.97;;;11.33;;
12707;SDS011;6418;50.824;4.718;2023-06-14T06:23:51;19.10;;;10.80;;
12707;SDS011;6418;50.824;4.718;2023-06-14T06:26:18;17.10;;;10.67;;
12707;SDS011;6418;50.824;4.718;2023-06-14T06:28:44;17.40;;;10.10;;
12707;SDS011;6418;50.824;4.718;2023-06-14T06:31:11;17.53;;;10.67;;
12707;SDS011;6418;50.824;4.718;2023-06-14T06:33:38;15.43;;;10.13;;
12707;SDS011;6418;50.824;4.718;2023-06-14T06:36:07;18.93;;;10.00;;
12707;SDS011;6418;50.824;4.718;2023-06-14T06:38:34;19.37;;;11.20;;
12707;SDS011;6418;50.824;4.718;2023-06-14T06:41:01;16.20;;;10.57;;
12707;SDS011;6418;50.824;4.718;2023-06-14T06:43:28;18.90;;;10.27;;
12707;SDS011;6418;50.824;4.718;2023-06-14T06:45:55;18.47;;;10.30;;
12707;SDS011;6418;50.824;4.718;2023-06-14T06:48:22;18.97;;;10.43;;
12707;SDS011;6418;50.824;4.718;2023-06-14T06:50:48;17.90;;;10.37;;
12707;SDS011;6418;50.824;4.718;2023-06-14T06:53:17;16.03;;;10.47;;
12707;SDS011;6418;50.824;4.718;2023-06-14T06:55:44;16.15;;;9.93;;
12707;SDS011;6418;50.824;4.718;2023-06-14T06:58:11;18.40;;;9.93;;
12707;SDS011;6418;50.824;4.718;2023-06-14T07:00:39;20.73;;;10.30;;
12707;SDS011;6418;50.824;4.718;2023-06-14T07:03:06;19.50;;;10.60;;
12707;SDS011;6418;50.824;4.718;2023-06-14T07:05:33;16.57;;;10.07;;
12707;SDS011;6418;50.824;4.718;2023-06-14T07:08:00;15.27;;;9.37;;
12707;SDS011;6418;50.824;4.718;2023-06-14T07:10:28;17.65;;;10.07;;
12707;SDS011;6418;50.824;4.718;2023-06-14T07:12:55;17.27;;;9.77;;
12707;SDS011;6418;50.824;4.718;2023-06-14T07:15:22;17.33;;;9.77;;
12707;SDS011;6418;50.824;4.718;2023-06-14T07:17:49;16.30;;;9.60;;
12707;SDS011;6418;50.824;4.718;2023-06-14T07:20:18;16.10;;;9.68;;
12707;SDS011;6418;50.824;4.718;2023-06-14T07:22:47;16.75;;;9.35;;
12707;SDS011;6418;50.824;4.718;2023-06-14T07:25:14;16.17;;;9.38;;
12707;SDS011;6418;50.824;4.718;2023-06-14T07:27:46;15.18;;;9.38;;
12707;SDS011;6418;50.824;4.718;2023-06-14T07:30:13;15.80;;;9.27;;
12707;SDS011;6418;50.824;4.718;2023-06-14T07:32:40;15.30;;;9.27;;
12707;SDS011;6418;50.824;4.718;2023-06-14T07:35:07;14.68;;;9.45;;
12707;SDS011;6418;50.824;4.718;2023-06-14T07:37:34;19.23;;;9.38;;
12707;SDS011;6418;50.824;4.718;2023-06-14T07:40:01;16.25;;;9.35;;
12707;SDS011;6418;50.824;4.718;2023-06-14T07:42:32;15.93;;;9.07;;
12707;SDS011;6418;50.824;4.718;2023-06-14T07:45:01;20.25;;;8.32;;
12707;SDS011;6418;50.824;4.718;2023-06-14T07:47:28;16.92;;;9.15;;
12707;SDS011;6418;50.824;4.718;2023-06-14T07:49:55;14.73;;;8.60;;
12707;SDS011;6418;50.824;4.718;2023-06-14T07:52:22;19.65;;;9.63;;
12707;SDS011;6418;50.824;4.718;2023-06-14T07:54:49;17.83;;;8.82;;
12707;SDS011;6418;50.824;4.718;2023-06-14T07:57:15;19.10;;;9.23;;
12707;SDS011;6418;50.824;4.718;2023-06-14T07:59:45;15.60;;;8.60;;
12707;SDS011;6418;50.824;4.718;2023-06-14T08:02:14;17.48;;;8.82;;
12707;SDS011;6418;50.824;4.718;2023-06-14T08:04:41;13.77;;;8.68;;
12707;SDS011;6418;50.824;4.718;2023-06-14T08:07:08;13.88;;;8.50;;
12707;SDS011;6418;50.824;4.718;2023-06-14T08:09:35;14.90;;;8.25;;
12707;SDS011;6418;50.824;4.718;2023-06-14T08:12:03;16.40;;;8.18;;
12707;SDS011;6418;50.824;4.718;2023-06-14T08:14:32;16.25;;;8.75;;
12707;SDS011;6418;50.824;4.718;2023-06-14T08:16:59;14.65;;;8.05;;
12707;SDS011;6418;50.824;4.718;2023-06-14T08:19:27;14.77;;;8.77;;
12707;SDS011;6418;50.824;4.718;2023-06-14T08:21:54;19.33;;;8.98;;
12707;SDS011;6418;50.824;4.718;2023-06-14T08:24:22;17.60;;;8.77;;
12707;SDS011;6418;50.824;4.718;2023-06-14T08:26:50;17.27;;;8.10;;
12707;SDS011;6418;50.824;4.718;2023-06-14T08:29:17;15.73;;;8.50;;
12707;SDS011;6418;50.824;4.718;2023-06-14T08:31:43;15.57;;;8.20;;
12707;SDS011;6418;50.824;4.718;2023-06-14T08:34:10;16.73;;;8.77;;
12707;SDS011;6418;50.824;4.718;2023-06-14T08:36:38;16.30;;;8.63;;
12707;SDS011;6418;50.824;4.718;2023-06-14T08:39:06;15.15;;;8.73;;
12707;SDS011;6418;50.824;4.718;2023-06-14T08:41:34;17.50;;;8.40;;
12707;SDS011;6418;50.824;4.718;2023-06-14T08:44:01;20.00;;;8.93;;
12707;SDS011;6418;50.824;4.718;2023-06-14T08:46:28;20.05;;;9.18;;
12707;SDS011;6418;50.824;4.718;2023-06-14T08:49:00;20.77;;;9.45;;
12707;SDS011;6418;50.824;4.718;2023-06-14T08:51:28;17.23;;;8.82;;
12707;SDS011;6418;50.824;4.718;2023-06-14T08:54:00;19.02;;;8.50;;
12707;SDS011;6418;50.824;4.718;2023-06-14T08:56:29;16.83;;;8.80;;
12707;SDS011;6418;50.824;4.718;2023-06-14T08:58:57;17.25;;;8.50;;
12707;SDS011;6418;50.824;4.718;2023-06-14T09:01:27;13.95;;;7.72;;
12707;SDS011;6418;50.824;4.718;2023-06-14T09:03:56;17.02;;;7.70;;
12707;SDS011;6418;50.824;4.718;2023-06-14T09:06:24;16.88;;;8.55;;
12707;SDS011;6418;50.824;4.718;2023-06-14T09:08:53;17.40;;;8.48;;
12707;SDS011;6418;50.824;4.718;2023-06-14T09:11:23;19.23;;;8.63;;
12707;SDS011;6418;50.824;4.718;2023-06-14T09:13:51;15.50;;;8.52;;
12707;SDS011;6418;50.824;4.718;2023-06-14T09:16:18;15.00;;;8.95;;
12707;SDS011;6418;50.824;4.718;2023-06-14T09:18:46;15.10;;;8.45;;
12707;SDS011;6418;50.824;4.718;2023-06-14T09:21:14;17.35;;;8.40;;
12707;SDS011;6418;50.824;4.718;2023-06-14T09:23:42;15.25;;;8.65;;
12707;SDS011;6418;50.824;4.718;2023-06-14T09:26:10;18.17;;;7.95;;
12707;SDS011;6418;50.824;4.718;2023-06-14T09:28:42;16.27;;;8.20;;
12707;SDS011;6418;50.824;4.718;2023-06-14T09:31:10;16.80;;;7.55;;
12707;SDS011;6418;50.824;4.718;2023-06-14T09:33:37;16.17;;;7.85;;
12707;SDS011;6418;50.824;4.718;2023-06-14T09:36:04;15.23;;;7.50;;
12707;SDS011;6418;50.824;4.718;2023-06-14T09:38:36;15.05;;;7.82;;
12707;SDS011;6418;50.824;4.718;2023-06-14T09:41:05;17.73;;;8.02;;
12707;SDS011;6418;50.824;4.718;2023-06-14T09:43:32;14.93;;;7.85;;
12707;SDS011;6418;50.824;4.718;2023-06-14T09:46:01;16.00;;;7.65;;
12707;SDS011;6418;50.824;4.718;2023-06-14T09:48:30;14.30;;;7.57;;
12707;SDS011;6418;50.824;4.718;2023-06-14T09:50:57;20.98;;;8.10;;
12707;SDS011;6418;50.824;4.718;2023-06-14T09:53:25;18.13;;;7.60;;
12707;SDS011;6418;50.824;4.718;2023-06-14T09:55:53;16.73;;;8.23;;
12707;SDS011;6418;50.824;4.718;2023-06-14T09:58:23;16.15;;;7.72;;
12707;SDS011;6418;50.824;4.718;2023-06-14T10:00:54;21.17;;;7.15;;
12707;SDS011;6418;50.824;4.718;2023-06-14T10:03:27;17.00;;;7.55;;
12707;SDS011;6418;50.824;4.718;2023-06-14T10:05:55;15.45;;;7.95;;
12707;SDS011;6418;50.824;4.718;2023-06-14T10:08:26;17.88;;;6.63;;
12707;SDS011;6418;50.824;4.718;2023-06-14T10:10:56;17.00;;;7.25;;
12707;SDS011;6418;50.824;4.718;2023-06-14T10:13:23;13.25;;;7.20;;
12707;SDS011;6418;50.824;4.718;2023-06-14T10:15:54;19.17;;;6.80;;
12707;SDS011;6418;50.824;4.718;2023-06-14T10:18:31;14.18;;;6.95;;
12707;SDS011;6418;50.824;4.718;2023-06-14T10:21:04;16.60;;;6.65;;
12707;SDS011;6418;50.824;4.718;2023-06-14T10:23:40;15.07;;;6.63;;
12707;SDS011;6418;50.824;4.718;2023-06-14T10:26:09;15.65;;;7.15;;
12707;SDS011;6418;50.824;4.718;2023-06-14T10:28:53;13.98;;;6.75;;
12707;SDS011;6418;50.824;4.718;2023-06-14T10:31:23;13.55;;;6.40;;
12707;SDS011;6418;50.824;4.718;2023-06-14T10:34:06;12.98;;;6.72;;
12707;SDS011;6418;50.824;4.718;2023-06-14T10:36:33;15.18;;;6.40;;
12707;SDS011;6418;50.824;4.718;2023-06-14T10:39:01;15.88;;;6.82;;
12707;SDS011;6418;50.824;4.718;2023-06-14T10:41:34;14.80;;;6.70;;
12707;SDS011;6418;50.824;4.718;2023-06-14T10:47:24;16.80;;;7.10;;
12707;SDS011;6418;50.824;4.718;2023-06-14T10:49:54;16.27;;;7.07;;
12707;SDS011;6418;50.824;4.718;2023-06-14T10:52:23;11.90;;;6.30;;
12707;SDS011;6418;50.824;4.718;2023-06-14T10:57:40;16.77;;;6.53;;
12707;SDS011;6418;50.824;4.718;2023-06-14T11:00:08;12.25;;;6.30;;
12707;SDS011;6418;50.824;4.718;2023-06-14T11:05:51;11.02;;;5.82;;
12707;SDS011;6418;50.824;4.718;2023-06-14T11:11:35;12.50;;;5.90;;
12707;SDS011;6418;50.824;4.718;2023-06-14T11:14:04;18.50;;;6.18;;
12707;SDS011;6418;50.824;4.718;2023-06-14T11:16:31;14.57;;;5.78;;
12707;SDS011;6418;50.824;4.718;2023-06-14T11:19:00;14.15;;;6.13;;
12707;SDS011;6418;50.824;4.718;2023-06-14T11:21:29;15.55;;;5.97;;
12707;SDS011;6418;50.824;4.718;2023-06-14T11:23:58;13.90;;;6.10;;
12707;SDS011;6418;50.824;4.718;2023-06-14T11:26:25;12.75;;;5.82;;
12707;SDS011;6418;50.824;4.718;2023-06-14T11:28:55;12.02;;;6.00;;
12707;SDS011;6418;50.824;4.718;2023-06-14T11:31:22;12.60;;;6.13;;
12707;SDS011;6418;50.824;4.718;2023-06-14T11:33:50;12.15;;;5.78;;
12707;SDS011;6418;50.824;4.718;2023-06-14T11:36:17;13.18;;;5.95;;
12707;SDS011;6418;50.824;4.718;2023-06-14T11:38:45;16.35;;;6.13;;
12707;SDS011;6418;50.824;4.718;2023-06-14T11:41:12;14.13;;;6.10;;
12707;SDS011;6418;50.824;4.718;2023-06-14T11:43:39;17.17;;;6.03;;
12707;SDS011;6418;50.824;4.718;2023-06-14T11:46:11;13.75;;;6.18;;
12707;SDS011;6418;50.824;4.718;2023-06-14T11:48:40;10.82;;;5.97;;
12707;SDS011;6418;50.824;4.718;2023-06-14T11:51:08;13.55;;;5.60;;
12707;SDS011;6418;50.824;4.718;2023-06-14T11:53:36;15.68;;;6.15;;
12707;SDS011;6418;50.824;4.718;2023-06-14T11:56:04;12.02;;;5.90;;
12707;SDS011;6418;50.824;4.718;2023-06-14T11:58:32;14.38;;;6.00;;
12707;SDS011;6418;50.824;4.718;2023-06-14T12:00:59;13.90;;;5.70;;
12707;SDS011;6418;50.824;4.718;2023-06-14T12:03:26;11.90;;;5.55;;
12707;SDS011;6418;50.824;4.718;2023-06-14T12:06:03;13.40;;;5.90;;
12707;SDS011;6418;50.824;4.718;2023-06-14T12:08:32;12.07;;;5.72;;
12707;SDS011;6418;50.824;4.718;2023-06-14T12:11:05;12.27;;;5.90;;
12707;SDS011;6418;50.824;4.718;2023-06-14T12:13:34;12.05;;;5.97;;
12707;SDS011;6418;50.824;4.718;2023-06-14T12:16:04;11.90;;;5.60;;
12707;SDS011;6418;50.824;4.718;2023-06-14T12:18:34;10.70;;;5.70;;
12707;SDS011;6418;50.824;4.718;2023-06-14T12:21:03;13.65;;;5.72;;
12707;SDS011;6418;50.824;4.718;2023-06-14T12:23:44;15.38;;;5.45;;
12707;SDS011;6418;50.824;4.718;2023-06-14T12:26:14;18.55;;;5.82;;
12707;SDS011;6418;50.824;4.718;2023-06-14T12:28:41;14.23;;;5.88;;
12707;SDS011;6418;50.824;4.718;2023-06-14T12:31:09;12.75;;;5.47;;
12707;SDS011;6418;50.824;4.718;2023-06-14T12:33:38;12.07;;;5.28;;
12707;SDS011;6418;50.824;4.718;2023-06-14T12:36:06;8.93;;;5.30;;
12707;SDS011;6418;50.824;4.718;2023-06-14T12:38:33;10.50;;;5.22;;
12707;SDS011;6418;50.824;4.718;2023-06-14T12:41:00;11.43;;;5.30;;
12707;SDS011;6418;50.824;4.718;2023-06-14T12:43:29;11.27;;;4.75;;
12707;SDS011;6418;50.824;4.718;2023-06-14T12:45:55;9.77;;;4.90;;
12707;SDS011;6418;50.824;4.718;2023-06-14T12:48:22;11.60;;;4.88;;
12707;SDS011;6418;50.824;4.718;2023-06-14T12:50:49;12.60;;;5.32;;
12707;SDS011;6418;50.824;4.718;2023-06-14T12:53:16;13.75;;;4.85;;
12707;SDS011;6418;50.824;4.718;2023-06-14T12:55:43;11.00;;;4.82;;
12707;SDS011;6418;50.824;4.718;2023-06-14T12:58:10;11.00;;;5.03;;
12707;SDS011;6418;50.824;4.718;2023-06-14T13:00:40;11.18;;;5.10;;
12707;SDS011;6418;50.824;4.718;2023-06-14T13:03:07;13.20;;;5.20;;
12707;SDS011;6418;50.824;4.718;2023-06-14T13:05:34;13.98;;;4.95;;
12707;SDS011;6418;50.824;4.718;2023-06-14T13:08:02;10.50;;;4.63;;
12707;SDS011;6418;50.824;4.718;2023-06-14T13:10:29;9.90;;;4.60;;
12707;SDS011;6418;50.824;4.718;2023-06-14T13:12:56;9.65;;;4.60;;
12707;SDS011;6418;50.824;4.718;2023-06-14T13:15:25;8.38;;;4.20;;
12707;SDS011;6418;50.824;4.718;2023-06-14T13:17:53;12.05;;;4.28;;
12707;SDS011;6418;50.824;4.718;2023-06-14T13:20:20;8.00;;;3.80;;
12707;SDS011;6418;50.824;4.718;2023-06-14T13:22:47;7.88;;;4.30;;
12707;SDS011;6418;50.824;4.718;2023-06-14T13:25:14;8.38;;;4.03;;
12707;SDS011;6418;50.824;4.718;2023-06-14T13:27:41;6.45;;;3.70;;
12707;SDS011;6418;50.824;4.718;2023-06-14T13:30:08;10.98;;;3.80;;
12707;SDS011;6418;50.824;4.718;2023-06-14T13:32:36;9.43;;;3.80;;
12707;SDS011;6418;50.824;4.718;2023-06-14T13:35:05;8.00;;;3.78;;
12707;SDS011;6418;50.824;4.718;2023-06-14T13:37:32;7.93;;;3.58;;
12707;SDS011;6418;50.824;4.718;2023-06-14T13:39:59;7.57;;;3.50;;
12707;SDS011;6418;50.824;4.718;2023-06-14T13:42:26;12.05;;;3.88;;
12707;SDS011;6418;50.824;4.718;2023-06-14T13:44:52;9.57;;;3.50;;
12707;SDS011;6418;50.824;4.718;2023-06-14T13:47:19;7.35;;;3.60;;
12707;SDS011;6418;50.824;4.718;2023-06-14T13:49:46;9.50;;;3.90;;
12707;SDS011;6418;50.824;4.718;2023-06-14T13:52:14;9.05;;;3.50;;
12707;SDS011;6418;50.824;4.718;2023-06-14T13:54:41;8.25;;;3.67;;
12707;SDS011;6418;50.824;4.718;2023-06-14T13:57:08;9.15;;;3.92;;
12707;SDS011;6418;50.824;4.718;2023-06-14T13:59:37;8.48;;;3.88;;
12707;SDS011;6418;50.824;4.718;2023-06-14T14:02:05;7.32;;;3.45;;
12707;SDS011;6418;50.824;4.718;2023-06-14T14:04:32;8.02;;;3.70;;
12707;SDS011;6418;50.824;4.718;2023-06-14T14:06:59;7.25;;;3.50;;
12707;SDS011;6418;50.824;4.718;2023-06-14T14:09:27;7.90;;;3.78;;
12707;SDS011;6418;50.824;4.718;2023-06-14T14:11:54;6.57;;;3.67;;
12707;SDS011;6418;50.824;4.718;2023-06-14T14:14:21;10.25;;;4.00;;
12707;SDS011;6418;50.824;4.718;2023-06-14T14:16:48;8.15;;;3.72;;
12707;SDS011;6418;50.824;4.718;2023-06-14T14:19:16;5.47;;;3.53;;
12707;SDS011;6418;50.824;4.718;2023-06-14T14:21:43;9.95;;;3.60;;
12707;SDS011;6418;50.824;4.718;2023-06-14T14:24:10;10.50;;;3.70;;
12707;SDS011;6418;50.824;4.718;2023-06-14T14:26:39;9.38;;;3.78;;
12707;SDS011;6418;50.824;4.718;2023-06-14T14:29:06;5.90;;;3.58;;
12707;SDS011;6418;50.824;4.718;2023-06-14T14:31:33;9.65;;;3.70;;
12707;SDS011;6418;50.824;4.718;2023-06-14T14:34:00;7.78;;;3.80;;
12707;SDS011;6418;50.824;4.718;2023-06-14T14:36:27;14.10;;;3.85;;
12707;SDS011;6418;50.824;4.718;2023-06-14T14:38:54;7.30;;;3.53;;
12707;SDS011;6418;50.824;4.718;2023-06-14T14:41:21;9.18;;;3.90;;
12707;SDS011;6418;50.824;4.718;2023-06-14T14:43:49;7.63;;;3.50;;
12707;SDS011;6418;50.824;4.718;2023-06-14T14:46:16;9.27;;;3.90;;
12707;SDS011;6418;50.824;4.718;2023-06-14T14:48:43;8.85;;;3.92;;
12707;SDS011;6418;50.824;4.718;2023-06-14T14:51:10;9.57;;;3.60;;
12707;SDS011;6418;50.824;4.718;2023-06-14T14:53:37;9.75;;;3.72;;
12707;SDS011;6418;50.824;4.718;2023-06-14T14:56:04;7.93;;;3.55;;
12707;SDS011;6418;50.824;4.718;2023-06-14T14:58:31;9.57;;;4.10;;
12707;SDS011;6418;50.824;4.718;2023-06-14T15:00:59;8.45;;;3.75;;
12707;SDS011;6418;50.824;4.718;2023-06-14T15:03:26;8.70;;;4.00;;
12707;SDS011;6418;50.824;4.718;2023-06-14T15:05:53;10.07;;;3.88;;
12707;SDS011;6418;50.824;4.718;2023-06-14T15:08:20;7.57;;;3.78;;
12707;SDS011;6418;50.824;4.718;2023-06-14T15:10:46;7.22;;;4.07;;
12707;SDS011;6418;50.824;4.718;2023-06-14T15:13:14;8.88;;;3.90;;
12707;SDS011;6418;50.824;4.718;2023-06-14T15:15:40;6.32;;;3.75;;
12707;SDS011;6418;50.824;4.718;2023-06-14T15:18:09;12.27;;;3.90;;
12707;SDS011;6418;50.824;4.718;2023-06-14T15:20:35;7.65;;;3.58;;
12707;SDS011;6418;50.824;4.718;2023-06-14T15:23:02;7.43;;;3.80;;
12707;SDS011;6418;50.824;4.718;2023-06-14T15:25:29;7.03;;;3.70;;
12707;SDS011;6418;50.824;4.718;2023-06-14T15:27:57;7.78;;;3.90;;
12707;SDS011;6418;50.824;4.718;2023-06-14T15:30:26;6.80;;;3.70;;
12707;SDS011;6418;50.824;4.718;2023-06-14T15:32:54;8.65;;;3.75;;
12707;SDS011;6418;50.824;4.718;2023-06-14T15:35:22;8.18;;;3.65;;
12707;SDS011;6418;50.824;4.718;2023-06-14T15:37:49;9.80;;;3.80;;